Las Vegas, Nevada (DRI) Weather observations

Data are for observation ending at time listed.
 Day   Time    Ave.   Ave.  Ave.  Vector   Max.   Stn.    Total    Solar   Ave.  
  of    of     Air    Rel.  Wind   Wind    Wind   Baro.  Precip.   Rad.    Soil  
Year   Day     Temp.  Hum.  Speed  Dir.    Gust   Pres.                    Temp. 
2026   (PST)    F      %     mph   deg.    mph     mb.     in.     W/m2     F   
------------------------------------------------------------------------------
 127    2:50   70.9    24    0.0    47      0.6   944.7    0.00       0    78.2
 127    3:00   71.0    23    0.3    15      1.5   944.7    0.00       0    78.0
 127    3:10   71.4    22    0.4   348      1.2   944.7    0.00       0    77.9
 127    3:20   71.2    21    0.0     0      0.0   944.8    0.00       0    77.7
 127    3:30   70.5    20    0.0     0      0.0   944.7    0.00       0    77.6
 127    3:40   70.0    21    0.0     0      0.0   944.8    0.00       0    77.5
 127    3:50   69.2    23    0.0     0      0.0   944.8    0.00       0    77.3
 127    4:00   68.7    24    0.0     0      0.0   944.8    0.00       0    77.2
 127    4:10   68.2    25    0.0     0      0.0   944.7    0.00       0    77.0
 127    4:20   67.9    25    0.0     0      0.0   944.7    0.00       0    76.9
 127    4:30   68.0    25    0.0     0      0.0   944.8    0.00       0    76.8
 127    4:40   67.5    27    0.0     0      0.0   944.9    0.00       2    76.6
 127    4:50   66.6    28    0.0     0      0.0   944.9    0.00       4    76.5
 127    5:00   67.8    24    0.8   360      1.9   945.0    0.00      10    76.4
 127    5:10   68.7    23    0.3    40      1.1   945.1    0.00      15    76.2
 127    5:20   68.4    24    0.0     0      0.0   945.2    0.00      22    76.1
 127    5:30   67.8    25    0.8   155      1.5   945.2    0.00      22    76.0
 127    5:40   68.1    25    0.1   161      1.7   945.4    0.00      21    75.9
 127    5:50   68.7    24    0.0     0      0.0   945.5    0.00      23    75.8
 127    6:00   69.2    24    0.1   190      1.0   945.6    0.00      24    75.7
 127    6:10   69.8    24    0.9   190      1.7   945.6    0.00      26    75.6
 127    6:20   70.3    22    0.4   186      1.3   945.7    0.00      28    75.5
 127    6:30   70.9    22    0.3   175      1.2   945.6    0.00      28    75.4
 127    6:40   71.4    21    0.6   175      2.2   945.7    0.00      29    75.4
 127    6:50   72.1    20    0.7   159      1.8   945.7    0.00      31    75.4
 127    7:00   72.6    20    0.6   155      2.4   945.6    0.00      32    75.4
 127    7:10   73.3    20    0.9   171      2.9   945.6    0.00      33    75.3
 127    7:20   73.9    19    0.6   169      2.5   945.6    0.00      35    75.3
 127    7:30   74.4    18    0.9   193      1.6   945.6    0.00      40    75.3
 127    7:40   75.0    19    0.5   118      3.2   945.5    0.00      40    75.2
 127    7:50   75.7    18    0.2   195      1.8   945.5    0.00      51    75.2
 127    8:00   76.2    18    0.8    85      3.6   945.4    0.00      92    75.1
 127    8:10   76.8    17    1.0    49      3.8   945.4    0.00      78    75.1
 127    8:20   76.9    16    1.8    49      3.6   945.4    0.00      93    75.1
 127    8:30   77.3    16    2.1    17      4.1   945.4    0.00      95    75.1
 127    8:40   77.9    15    1.9    55      3.8   945.3    0.00     233    75.1
 127    8:50   78.5    15    0.7    51      3.2   945.2    0.00     594    75.2
 127    9:00   79.1    14    1.2    44      5.9   945.1    0.00     558    75.2
 127    9:10   80.1    14    1.7    50      3.9   945.0    0.00     739    75.3
 127    9:20   81.0    13    0.9    58      3.8   944.9    0.00     764    75.4
 127    9:30   81.5    13    1.6    49      3.7   944.9    0.00     787    75.6
 127    9:40   82.5    12    1.2    30      3.1   944.8    0.00     810    75.8
 127    9:50   82.9    12    1.0    34      3.4   944.8    0.00     830    76.1
 127   10:00   82.8    12    1.3    31      4.3   944.7    0.00     847    76.5
 127   10:10   83.4    12    1.6    29      4.2   944.5    0.00     864    77.1
 127   10:20   84.1    12    2.2   185      4.8   944.3    0.00     879    77.8
 127   10:30   84.1    12    1.7   192      4.2   944.3    0.00     892    78.6
 127   10:40   85.5    12    0.9   131      2.9   944.1    0.00     905    79.5
 127   10:50   87.0    12    1.9   170      4.6   943.9    0.00     917    80.4
 127   11:00   85.9    12    2.0   187      5.2   943.8    0.00     924    81.4
 127   11:10   87.1    11    2.2   286      5.1   943.5    0.00     932    82.4
 127   11:20   87.7    12    2.3   178      6.1   943.3    0.00     938    83.3
 127   11:30   86.8    12    2.5   213      6.4   943.1    0.00     942    84.2
 127   11:40   87.5    12    2.7   205      5.6   943.0    0.00     945    85.0
 127   11:50   88.2    12    2.0   198      5.3   942.9    0.00     944    85.9
 127   12:00   88.5    12    2.8   173      6.6   942.7    0.00     943    86.7
 127   12:10   89.2    12    2.1   171      5.9   942.5    0.00     939    87.5
 127   12:20   90.2    12    1.9   193      4.3   942.4    0.00     934    88.3
 127   12:30   90.8    12    1.3    76      3.7   942.2    0.00     929    89.0
 127   12:40   91.0    12    1.3   174      3.7   942.0    0.00     920    89.8
 127   12:50   90.4    12    2.0    29      5.4   941.8    0.00     910    90.5
 127   13:00   88.9    12    2.3    49      6.2   941.6    0.00     899    91.2
 127   13:10   89.2    12    3.3    37      7.2   941.3    0.00     887    91.8
 127   13:20   89.9    12    2.5    23      5.4   941.2    0.00     872    92.4
 127   13:30   90.1    12    2.0    52      4.6   941.1    0.00     857    93.0
 127   13:40   91.6    12    2.6   342      7.1   940.8    0.00     840    93.4
 127   13:50   91.3    12    1.8    24      5.9   940.6    0.00     822    93.9
 127   14:00   92.4    12    2.8   214      5.5   940.4    0.00     803    94.3
 127   14:10   92.4    12    3.2   178      6.3   940.2    0.00     781    94.6
 127   14:20   92.3    12    3.5   196     11.0   940.0    0.00     758    94.9
 127   14:30   93.4    12    3.2   356      7.8   939.8    0.00     733    95.3
 127   14:40   93.0    12    3.4     4      7.7   939.6    0.00     707    95.5
 127   14:50   92.7    12    2.3     9      4.8   939.5    0.00     681    95.7
 127   15:00   93.9    12    1.5   341      5.3   939.3    0.00     653    95.8
 127   15:10   94.4    11    2.2   327      6.1   939.2    0.00     625    95.9
 127   15:20   94.2    12    1.8   261      5.4   939.0    0.00     595    96.0
 127   15:30   93.5    12    2.5    27      5.3   938.9    0.00     563    95.9
 127   15:40   94.0    12    1.3    11      5.1   938.8    0.00     531    95.9
 127   15:50   95.2    11    2.4   328      6.4   938.8    0.00     500    95.8
 127   16:00   95.6    11    2.5   317      5.3   938.6    0.00     468    95.7
 127   16:10   94.9    12    1.8    19      4.3   938.5    0.00     434    95.5
 127   16:20   95.1    12    1.5   220      3.8   938.5    0.00     399    95.4
 127   16:30   96.8    12    0.8   262      2.7   938.4    0.00     366    95.3
 127   16:40   96.3    12    1.1    34      3.6   938.4    0.00     332    95.1
 127   16:50   95.9    12    1.4   357      5.3   938.3    0.00     299    95.0
 127   17:00   95.3    12    1.5   176      4.2   938.3    0.00     265    94.8
 127   17:10   97.5    12    0.1    70      1.2   938.3    0.00     231    94.6
 127   17:20   97.6    12    0.4    11      1.6   938.2    0.00     198    94.5
 127   17:30   96.4    12    1.0   186      3.4   938.2    0.00     168    94.2
 127   17:40   94.4    12    1.2   190      2.9   938.1    0.00     139    94.0
 127   17:50   93.7    13    1.6   176      4.0   938.1    0.00     111    93.7
 127   18:00   92.0    13    0.7   178      2.8   938.1    0.00      40    93.3
 127   18:10   91.9    14    1.3   178      3.1   938.1    0.00      35    92.9
 127   18:20   91.2    14    0.9   167      4.2   938.2    0.00      21    92.6
 127   18:30   90.4    14    0.4   199      1.8   938.3    0.00       8    92.2
 127   18:40   89.7    14    0.3   205      1.8   938.4    0.00       4    91.8
 127   18:50   89.3    15    0.7   177      2.3   938.4    0.00       1    91.5
 127   19:00   88.7    15    0.3   184      2.0   938.5    0.00       0    91.1
 127   19:10   88.3    15    0.1   360      1.2   938.7    0.00       0    90.7
 127   19:20   88.6    14    1.8   181      6.5   938.8    0.00       0    90.3
 127   19:30   89.1    13    2.7   167      6.3   938.9    0.00       0    90.0
 127   19:40   89.3    12    3.0   175      7.2   939.0    0.00       0    89.7
 127   19:50   89.1    12    2.8   185      5.8   939.1    0.00       0    89.3
 127   20:00   88.8    12    3.4   178      8.0   939.1    0.00       0    89.0
 127   20:10   88.4    13    4.2   186      7.7   939.2    0.00       0    88.6
 127   20:20   87.7    13    3.5   177      5.5   939.3    0.00       0    88.3
 127   20:30   87.3    13    3.0   181      4.6   939.4    0.00       0    88.0
 127   20:40   86.9    13    2.7   187      5.7   939.3    0.00       0    87.8
 127   20:50   86.8    13    3.5   191      6.7   939.3    0.00       0    87.5
 127   21:00   86.6    13    3.2   188      6.1   939.4    0.00       0    87.3
 127   21:10   86.3    14    3.4   190      6.8   939.4    0.00       0    87.1
 127   21:20   86.2    14    2.2   202      4.6   939.4    0.00       0    86.8
 127   21:30   85.8    14    1.9   206      3.9   939.4    0.00       0    86.7
 127   21:40   85.6    14    1.8   202      4.4   939.4    0.00       0    86.5
 127   21:50   85.2    14    1.6   176      3.5   939.3    0.00       0    86.3
 127   22:00   84.1    15    0.7   167      1.7   939.4    0.00       0    86.1
 127   22:10   83.8    16    0.9   173      2.6   939.3    0.00       0    86.0
 127   22:20   83.2    15    1.7   162      3.2   939.4    0.00       0    85.8
 127   22:30   83.0    14    2.2   168      4.3   939.4    0.00       0    85.6
 127   22:40   82.3    15    0.1   160      2.8   939.6    0.00       0    85.4
 127   22:50   81.4    15    2.5   165      4.7   939.6    0.00       0    85.2
 127   23:00   81.4    15    2.6   181      4.9   939.7    0.00       0    85.0
 127   23:10   81.5    15    3.0   180      5.1   939.6    0.00       0    84.8
 127   23:20   81.4    15    2.2   174      3.7   939.7    0.00       0    84.6
 127   23:30   80.9    16    2.2   172      3.3   939.7    0.00       0    84.4
 127   23:40   80.9    16    1.4   167      3.1   939.7    0.00       0    84.2
 127   23:50   80.5    16    0.3   155      1.5   939.7    0.00       0    84.1
 128    0:00   79.7    17    0.5   179      1.7   939.6    0.00       0    83.9
 128    0:10   79.1    19    0.4   168      1.4   939.5    0.00       0    83.8
 128    0:20   78.5    19    0.4     8      1.9   939.6    0.00       0    83.6
 128    0:30   77.9    20    0.0     0      0.0   939.6    0.00       0    83.4
 128    0:40   76.8    22    0.5   145      2.5   939.6    0.00       0    83.2
 128    0:50   77.1    22    0.3   347      1.8   939.5    0.00       0    83.1
 128    1:00   76.9    22    0.0    76      0.6   939.6    0.00       0    83.0
 128    1:10   75.7    24    0.3   161      1.5   939.6    0.00       0    82.8
 128    1:20   75.2    23    0.3    30      1.8   939.6    0.00       0    82.6
 128    1:30   75.7    22    1.5     3      2.4   939.6    0.00       0    82.4
 128    1:40   75.3    23    0.4     6      1.8   939.5    0.00       0    82.3
 128    1:50   75.1    24    0.5   165      2.2   939.5    0.00       0    82.1
 128    2:00   74.2    25    1.2   167      2.7   939.7    0.00       0    81.9
 128    2:10   74.2    24    0.5   212      1.8   939.7    0.00       0    81.8
 128    2:20   74.7    24    0.3   101      1.5   939.8    0.00       0    81.6
 128    2:30   74.3    24    0.2   189      1.2   939.9    0.00       0    81.5
 128    2:40   73.3    25    0.0   163      0.3   939.9    0.00       0    81.3

Return to Las Vegas, Nevada graphs page.


Western Regional Climate Center,wrcc@dri.edu